Bayou Meto, Arkansas
Current Conditions -  °F | °C
As of 4:15 AM on Sunday 25 Jan 2015 (Local Time) from KSGT Reporting Station
Clear Clear  
Wind Chill: 35°   Ceiling: Unl
Heat Index: 43°   Visibility: 10mi
Dew Point: 36°   Wind: 15mph
Humidity: 76%   Direction: 230°SW
Pressure: 29.84"   Gusts: NA
Location:  34.3615°N, 91.5213°W
Report Text: KSGT 251015Z AUTO 23013KT 10SM CLR 06/02 A2984 RMK AO1
Loading
Personal Weather Stations






























Interactive Weather Map New forecast layout! Learn more

10-Day Weather Forecast

Advertisements
Track Severe Weather on mobile